sensor_id;sensor_type;location;lat;lon;timestamp;P1;durP1;ratioP1;P2;durP2;ratioP2
64029;SDS011;50277;52.064;4.492;2024-03-06T00:01:30;26.95;;;20.50;;
64029;SDS011;50277;52.064;4.492;2024-03-06T00:03:56;29.95;;;21.02;;
64029;SDS011;50277;52.064;4.492;2024-03-06T00:06:21;29.70;;;20.55;;
64029;SDS011;50277;52.064;4.492;2024-03-06T00:08:47;31.85;;;21.40;;
64029;SDS011;50277;52.064;4.492;2024-03-06T00:11:12;29.67;;;20.73;;
64029;SDS011;50277;52.064;4.492;2024-03-06T00:13:37;33.65;;;22.58;;
64029;SDS011;50277;52.064;4.492;2024-03-06T00:16:03;30.25;;;21.33;;
64029;SDS011;50277;52.064;4.492;2024-03-06T00:18:29;31.20;;;21.35;;
64029;SDS011;50277;52.064;4.492;2024-03-06T00:20:54;36.13;;;22.15;;
64029;SDS011;50277;52.064;4.492;2024-03-06T00:23:19;28.70;;;21.88;;
64029;SDS011;50277;52.064;4.492;2024-03-06T00:25:45;33.30;;;22.85;;
64029;SDS011;50277;52.064;4.492;2024-03-06T00:28:10;32.10;;;21.95;;
64029;SDS011;50277;52.064;4.492;2024-03-06T00:30:35;33.08;;;22.38;;
64029;SDS011;50277;52.064;4.492;2024-03-06T00:33:01;29.85;;;23.13;;
64029;SDS011;50277;52.064;4.492;2024-03-06T00:35:26;28.15;;;21.52;;
64029;SDS011;50277;52.064;4.492;2024-03-06T00:37:53;26.10;;;19.88;;
64029;SDS011;50277;52.064;4.492;2024-03-06T00:40:19;29.77;;;21.50;;
64029;SDS011;50277;52.064;4.492;2024-03-06T00:42:44;31.42;;;21.20;;
64029;SDS011;50277;52.064;4.492;2024-03-06T00:45:10;31.02;;;23.35;;
64029;SDS011;50277;52.064;4.492;2024-03-06T00:47:36;30.38;;;21.83;;
64029;SDS011;50277;52.064;4.492;2024-03-06T00:50:01;29.13;;;21.65;;
64029;SDS011;50277;52.064;4.492;2024-03-06T00:52:27;31.65;;;22.98;;
64029;SDS011;50277;52.064;4.492;2024-03-06T00:54:52;28.05;;;20.80;;
64029;SDS011;50277;52.064;4.492;2024-03-06T00:57:18;28.25;;;21.25;;
64029;SDS011;50277;52.064;4.492;2024-03-06T00:59:43;31.77;;;21.77;;
64029;SDS011;50277;52.064;4.492;2024-03-06T01:02:08;28.95;;;21.50;;
64029;SDS011;50277;52.064;4.492;2024-03-06T01:04:34;27.95;;;21.27;;
64029;SDS011;50277;52.064;4.492;2024-03-06T01:06:59;32.47;;;20.45;;
64029;SDS011;50277;52.064;4.492;2024-03-06T01:09:24;29.45;;;21.67;;
64029;SDS011;50277;52.064;4.492;2024-03-06T01:11:50;30.17;;;20.83;;
64029;SDS011;50277;52.064;4.492;2024-03-06T01:14:15;28.35;;;20.73;;
64029;SDS011;50277;52.064;4.492;2024-03-06T01:16:41;28.67;;;20.98;;
64029;SDS011;50277;52.064;4.492;2024-03-06T01:19:07;31.52;;;21.08;;
64029;SDS011;50277;52.064;4.492;2024-03-06T01:21:32;28.40;;;21.48;;
64029;SDS011;50277;52.064;4.492;2024-03-06T01:23:59;32.70;;;21.25;;
64029;SDS011;50277;52.064;4.492;2024-03-06T01:26:28;29.83;;;22.08;;
64029;SDS011;50277;52.064;4.492;2024-03-06T01:28:53;30.63;;;22.70;;
64029;SDS011;50277;52.064;4.492;2024-03-06T01:31:19;31.10;;;21.98;;
64029;SDS011;50277;52.064;4.492;2024-03-06T01:33:44;28.63;;;19.67;;
64029;SDS011;50277;52.064;4.492;2024-03-06T01:36:09;26.83;;;19.17;;
64029;SDS011;50277;52.064;4.492;2024-03-06T01:38:35;24.52;;;19.67;;
64029;SDS011;50277;52.064;4.492;2024-03-06T01:41:00;29.20;;;20.40;;
64029;SDS011;50277;52.064;4.492;2024-03-06T01:43:25;33.60;;;21.92;;
64029;SDS011;50277;52.064;4.492;2024-03-06T01:45:52;24.70;;;19.60;;
64029;SDS011;50277;52.064;4.492;2024-03-06T01:48:22;27.95;;;20.67;;
64029;SDS011;50277;52.064;4.492;2024-03-06T01:50:50;30.30;;;19.40;;
64029;SDS011;50277;52.064;4.492;2024-03-06T01:53:16;29.55;;;22.85;;
64029;SDS011;50277;52.064;4.492;2024-03-06T01:55:43;25.75;;;20.15;;
64029;SDS011;50277;52.064;4.492;2024-03-06T01:58:09;26.10;;;20.13;;
64029;SDS011;50277;52.064;4.492;2024-03-06T02:00:34;29.05;;;20.17;;
64029;SDS011;50277;52.064;4.492;2024-03-06T02:03:01;29.67;;;20.83;;
64029;SDS011;50277;52.064;4.492;2024-03-06T02:05:27;30.20;;;22.15;;
64029;SDS011;50277;52.064;4.492;2024-03-06T02:07:54;26.83;;;20.40;;
64029;SDS011;50277;52.064;4.492;2024-03-06T02:10:20;28.33;;;20.13;;
64029;SDS011;50277;52.064;4.492;2024-03-06T02:12:46;28.50;;;21.77;;
64029;SDS011;50277;52.064;4.492;2024-03-06T02:15:14;24.95;;;20.67;;
64029;SDS011;50277;52.064;4.492;2024-03-06T02:17:40;29.83;;;21.85;;
64029;SDS011;50277;52.064;4.492;2024-03-06T02:20:06;30.02;;;19.63;;
64029;SDS011;50277;52.064;4.492;2024-03-06T02:22:32;31.13;;;22.08;;
64029;SDS011;50277;52.064;4.492;2024-03-06T02:24:57;40.10;;;22.55;;
64029;SDS011;50277;52.064;4.492;2024-03-06T02:27:23;34.60;;;23.00;;
64029;SDS011;50277;52.064;4.492;2024-03-06T02:29:48;31.17;;;23.48;;
64029;SDS011;50277;52.064;4.492;2024-03-06T02:32:14;34.72;;;22.38;;
64029;SDS011;50277;52.064;4.492;2024-03-06T02:34:42;34.05;;;23.75;;
64029;SDS011;50277;52.064;4.492;2024-03-06T02:37:07;34.78;;;25.13;;
64029;SDS011;50277;52.064;4.492;2024-03-06T02:39:33;35.45;;;24.35;;
64029;SDS011;50277;52.064;4.492;2024-03-06T02:41:59;37.08;;;25.70;;
64029;SDS011;50277;52.064;4.492;2024-03-06T02:44:24;35.72;;;26.48;;
64029;SDS011;50277;52.064;4.492;2024-03-06T02:46:50;32.28;;;25.23;;
64029;SDS011;50277;52.064;4.492;2024-03-06T02:49:15;36.55;;;27.58;;
64029;SDS011;50277;52.064;4.492;2024-03-06T02:51:41;34.13;;;26.13;;
64029;SDS011;50277;52.064;4.492;2024-03-06T02:54:07;34.85;;;25.60;;
64029;SDS011;50277;52.064;4.492;2024-03-06T02:56:32;37.25;;;27.33;;
64029;SDS011;50277;52.064;4.492;2024-03-06T02:58:57;36.95;;;27.80;;
64029;SDS011;50277;52.064;4.492;2024-03-06T03:01:22;35.58;;;26.98;;
64029;SDS011;50277;52.064;4.492;2024-03-06T03:03:48;35.97;;;27.00;;
64029;SDS011;50277;52.064;4.492;2024-03-06T03:06:13;34.78;;;26.38;;
64029;SDS011;50277;52.064;4.492;2024-03-06T03:08:39;38.33;;;27.17;;
64029;SDS011;50277;52.064;4.492;2024-03-06T03:11:04;36.63;;;27.25;;
64029;SDS011;50277;52.064;4.492;2024-03-06T03:13:30;36.72;;;27.42;;
64029;SDS011;50277;52.064;4.492;2024-03-06T03:15:58;37.47;;;26.88;;
64029;SDS011;50277;52.064;4.492;2024-03-06T03:18:23;36.22;;;27.38;;
64029;SDS011;50277;52.064;4.492;2024-03-06T03:20:48;35.40;;;27.63;;
64029;SDS011;50277;52.064;4.492;2024-03-06T03:23:14;40.42;;;27.05;;
64029;SDS011;50277;52.064;4.492;2024-03-06T03:25:42;39.70;;;26.00;;
64029;SDS011;50277;52.064;4.492;2024-03-06T03:28:08;36.20;;;27.55;;
64029;SDS011;50277;52.064;4.492;2024-03-06T03:30:34;38.25;;;26.98;;
64029;SDS011;50277;52.064;4.492;2024-03-06T03:33:00;36.33;;;27.23;;
64029;SDS011;50277;52.064;4.492;2024-03-06T03:35:25;36.28;;;26.42;;
64029;SDS011;50277;52.064;4.492;2024-03-06T03:37:51;36.28;;;26.23;;
64029;SDS011;50277;52.064;4.492;2024-03-06T03:40:17;34.42;;;25.92;;
64029;SDS011;50277;52.064;4.492;2024-03-06T03:42:43;35.35;;;27.38;;
64029;SDS011;50277;52.064;4.492;2024-03-06T03:45:09;37.13;;;26.95;;
64029;SDS011;50277;52.064;4.492;2024-03-06T03:47:34;33.30;;;26.73;;
64029;SDS011;50277;52.064;4.492;2024-03-06T03:49:59;41.35;;;27.60;;
64029;SDS011;50277;52.064;4.492;2024-03-06T03:52:25;40.03;;;28.58;;
64029;SDS011;50277;52.064;4.492;2024-03-06T03:54:50;37.25;;;28.40;;
64029;SDS011;50277;52.064;4.492;2024-03-06T03:57:15;40.50;;;28.83;;
64029;SDS011;50277;52.064;4.492;2024-03-06T03:59:42;40.13;;;27.50;;
64029;SDS011;50277;52.064;4.492;2024-03-06T04:02:08;37.80;;;27.95;;
64029;SDS011;50277;52.064;4.492;2024-03-06T04:04:33;42.15;;;27.88;;
64029;SDS011;50277;52.064;4.492;2024-03-06T04:06:59;34.65;;;27.95;;
64029;SDS011;50277;52.064;4.492;2024-03-06T04:09:26;36.92;;;27.60;;
64029;SDS011;50277;52.064;4.492;2024-03-06T04:11:52;36.45;;;28.50;;
64029;SDS011;50277;52.064;4.492;2024-03-06T04:14:17;38.53;;;28.70;;
64029;SDS011;50277;52.064;4.492;2024-03-06T04:16:45;35.13;;;27.13;;
64029;SDS011;50277;52.064;4.492;2024-03-06T04:19:10;36.53;;;28.27;;
64029;SDS011;50277;52.064;4.492;2024-03-06T04:21:40;33.95;;;26.80;;
64029;SDS011;50277;52.064;4.492;2024-03-06T04:24:06;37.28;;;27.52;;
64029;SDS011;50277;52.064;4.492;2024-03-06T04:26:32;35.25;;;27.15;;
64029;SDS011;50277;52.064;4.492;2024-03-06T04:28:57;36.13;;;28.15;;
64029;SDS011;50277;52.064;4.492;2024-03-06T04:31:22;36.42;;;26.38;;
64029;SDS011;50277;52.064;4.492;2024-03-06T04:33:48;36.80;;;28.08;;
64029;SDS011;50277;52.064;4.492;2024-03-06T04:36:13;41.20;;;28.88;;
64029;SDS011;50277;52.064;4.492;2024-03-06T04:38:38;37.22;;;27.67;;
64029;SDS011;50277;52.064;4.492;2024-03-06T04:41:05;43.00;;;30.05;;
64029;SDS011;50277;52.064;4.492;2024-03-06T04:43:31;36.67;;;29.08;;
64029;SDS011;50277;52.064;4.492;2024-03-06T04:45:56;40.60;;;29.83;;
64029;SDS011;50277;52.064;4.492;2024-03-06T04:48:22;46.22;;;30.65;;
64029;SDS011;50277;52.064;4.492;2024-03-06T04:50:47;40.88;;;30.00;;
64029;SDS011;50277;52.064;4.492;2024-03-06T04:53:13;40.78;;;29.25;;
64029;SDS011;50277;52.064;4.492;2024-03-06T04:55:38;40.60;;;29.67;;
64029;SDS011;50277;52.064;4.492;2024-03-06T04:58:03;40.85;;;30.55;;
64029;SDS011;50277;52.064;4.492;2024-03-06T05:00:29;44.25;;;31.65;;
64029;SDS011;50277;52.064;4.492;2024-03-06T05:02:55;45.78;;;31.13;;
64029;SDS011;50277;52.064;4.492;2024-03-06T05:05:21;44.33;;;31.05;;
64029;SDS011;50277;52.064;4.492;2024-03-06T05:07:47;40.97;;;30.17;;
64029;SDS011;50277;52.064;4.492;2024-03-06T05:10:12;42.28;;;31.00;;
64029;SDS011;50277;52.064;4.492;2024-03-06T05:12:38;42.83;;;30.95;;
64029;SDS011;50277;52.064;4.492;2024-03-06T05:15:03;50.15;;;31.58;;
64029;SDS011;50277;52.064;4.492;2024-03-06T05:17:29;48.13;;;32.08;;
64029;SDS011;50277;52.064;4.492;2024-03-06T05:19:54;48.63;;;32.55;;
64029;SDS011;50277;52.064;4.492;2024-03-06T05:22:20;48.85;;;34.78;;
64029;SDS011;50277;52.064;4.492;2024-03-06T05:24:46;47.13;;;32.72;;
64029;SDS011;50277;52.064;4.492;2024-03-06T05:27:11;51.13;;;34.25;;
64029;SDS011;50277;52.064;4.492;2024-03-06T05:29:41;44.10;;;32.45;;
64029;SDS011;50277;52.064;4.492;2024-03-06T05:32:06;47.72;;;33.35;;
64029;SDS011;50277;52.064;4.492;2024-03-06T05:34:32;45.70;;;33.58;;
64029;SDS011;50277;52.064;4.492;2024-03-06T05:36:58;50.60;;;33.92;;
64029;SDS011;50277;52.064;4.492;2024-03-06T05:39:24;46.25;;;33.78;;
64029;SDS011;50277;52.064;4.492;2024-03-06T05:41:49;46.17;;;31.23;;
64029;SDS011;50277;52.064;4.492;2024-03-06T05:44:14;46.97;;;33.65;;
64029;SDS011;50277;52.064;4.492;2024-03-06T05:46:40;47.90;;;34.92;;
64029;SDS011;50277;52.064;4.492;2024-03-06T05:49:05;49.33;;;34.10;;
64029;SDS011;50277;52.064;4.492;2024-03-06T05:51:31;48.67;;;34.40;;
64029;SDS011;50277;52.064;4.492;2024-03-06T05:53:56;47.85;;;33.08;;
64029;SDS011;50277;52.064;4.492;2024-03-06T05:56:21;46.33;;;31.95;;
64029;SDS011;50277;52.064;4.492;2024-03-06T05:58:47;48.20;;;32.63;;
64029;SDS011;50277;52.064;4.492;2024-03-06T06:01:12;48.45;;;34.47;;
64029;SDS011;50277;52.064;4.492;2024-03-06T06:03:46;49.13;;;35.33;;
64029;SDS011;50277;52.064;4.492;2024-03-06T06:06:14;49.20;;;33.58;;
64029;SDS011;50277;52.064;4.492;2024-03-06T06:08:40;49.80;;;35.13;;
64029;SDS011;50277;52.064;4.492;2024-03-06T06:11:05;54.50;;;36.33;;
64029;SDS011;50277;52.064;4.492;2024-03-06T06:13:30;58.38;;;36.20;;
64029;SDS011;50277;52.064;4.492;2024-03-06T06:15:59;55.47;;;36.90;;
64029;SDS011;50277;52.064;4.492;2024-03-06T06:20:50;58.80;;;35.43;;
64029;SDS011;50277;52.064;4.492;2024-03-06T06:23:16;60.00;;;38.17;;
64029;SDS011;50277;52.064;4.492;2024-03-06T06:25:41;68.45;;;39.25;;
64029;SDS011;50277;52.064;4.492;2024-03-06T06:28:06;71.10;;;39.88;;
64029;SDS011;50277;52.064;4.492;2024-03-06T06:30:32;62.65;;;39.50;;
64029;SDS011;50277;52.064;4.492;2024-03-06T06:32:57;66.97;;;40.63;;
64029;SDS011;50277;52.064;4.492;2024-03-06T06:35:22;88.57;;;41.50;;
64029;SDS011;50277;52.064;4.492;2024-03-06T06:37:50;213.18;;;42.53;;
64029;SDS011;50277;52.064;4.492;2024-03-06T06:40:15;111.15;;;39.83;;
64029;SDS011;50277;52.064;4.492;2024-03-06T06:42:44;69.07;;;39.00;;
64029;SDS011;50277;52.064;4.492;2024-03-06T06:45:14;85.97;;;41.35;;
64029;SDS011;50277;52.064;4.492;2024-03-06T06:47:40;189.70;;;42.55;;
64029;SDS011;50277;52.064;4.492;2024-03-06T06:50:05;173.77;;;40.58;;
64029;SDS011;50277;52.064;4.492;2024-03-06T06:52:31;161.98;;;41.58;;
64029;SDS011;50277;52.064;4.492;2024-03-06T06:54:58;108.60;;;41.17;;
64029;SDS011;50277;52.064;4.492;2024-03-06T06:57:24;167.18;;;41.97;;
64029;SDS011;50277;52.064;4.492;2024-03-06T06:59:49;134.25;;;41.83;;
64029;SDS011;50277;52.064;4.492;2024-03-06T07:02:15;119.80;;;41.30;;
64029;SDS011;50277;52.064;4.492;2024-03-06T07:04:40;110.50;;;43.13;;
64029;SDS011;50277;52.064;4.492;2024-03-06T07:07:05;63.65;;;40.65;;
64029;SDS011;50277;52.064;4.492;2024-03-06T07:09:31;131.15;;;41.42;;
64029;SDS011;50277;52.064;4.492;2024-03-06T07:11:56;80.35;;;43.75;;
64029;SDS011;50277;52.064;4.492;2024-03-06T07:14:23;75.88;;;42.55;;
64029;SDS011;50277;52.064;4.492;2024-03-06T07:16:48;68.15;;;40.40;;
64029;SDS011;50277;52.064;4.492;2024-03-06T07:19:13;69.65;;;42.75;;
64029;SDS011;50277;52.064;4.492;2024-03-06T07:21:39;72.47;;;42.63;;
64029;SDS011;50277;52.064;4.492;2024-03-06T07:24:04;79.57;;;47.42;;
64029;SDS011;50277;52.064;4.492;2024-03-06T07:26:33;88.97;;;42.33;;
64029;SDS011;50277;52.064;4.492;2024-03-06T07:28:59;65.82;;;38.55;;
64029;SDS011;50277;52.064;4.492;2024-03-06T07:31:24;56.00;;;39.33;;
64029;SDS011;50277;52.064;4.492;2024-03-06T07:33:50;95.82;;;38.10;;
64029;SDS011;50277;52.064;4.492;2024-03-06T07:36:16;52.15;;;35.42;;
64029;SDS011;50277;52.064;4.492;2024-03-06T07:38:44;46.20;;;34.70;;
64029;SDS011;50277;52.064;4.492;2024-03-06T07:41:09;60.15;;;37.92;;
64029;SDS011;50277;52.064;4.492;2024-03-06T07:43:35;47.35;;;35.00;;
64029;SDS011;50277;52.064;4.492;2024-03-06T07:46:01;49.33;;;35.78;;
64029;SDS011;50277;52.064;4.492;2024-03-06T07:48:26;78.30;;;39.38;;
64029;SDS011;50277;52.064;4.492;2024-03-06T07:50:51;64.78;;;38.65;;
64029;SDS011;50277;52.064;4.492;2024-03-06T07:53:17;56.88;;;37.85;;
64029;SDS011;50277;52.064;4.492;2024-03-06T07:55:42;57.08;;;36.60;;
64029;SDS011;50277;52.064;4.492;2024-03-06T07:58:07;53.80;;;35.08;;
64029;SDS011;50277;52.064;4.492;2024-03-06T08:00:34;55.03;;;34.65;;
64029;SDS011;50277;52.064;4.492;2024-03-06T08:02:59;56.03;;;36.00;;
64029;SDS011;50277;52.064;4.492;2024-03-06T08:05:25;50.88;;;34.67;;
64029;SDS011;50277;52.064;4.492;2024-03-06T08:07:51;46.80;;;30.98;;
64029;SDS011;50277;52.064;4.492;2024-03-06T08:10:16;40.10;;;28.60;;
64029;SDS011;50277;52.064;4.492;2024-03-06T08:12:43;39.05;;;28.83;;
64029;SDS011;50277;52.064;4.492;2024-03-06T08:15:10;40.50;;;28.90;;
64029;SDS011;50277;52.064;4.492;2024-03-06T08:17:40;38.05;;;27.80;;
64029;SDS011;50277;52.064;4.492;2024-03-06T08:20:07;40.15;;;28.45;;
64029;SDS011;50277;52.064;4.492;2024-03-06T08:22:40;39.30;;;29.75;;
64029;SDS011;50277;52.064;4.492;2024-03-06T08:25:07;43.92;;;29.48;;
64029;SDS011;50277;52.064;4.492;2024-03-06T08:27:34;39.03;;;29.15;;
64029;SDS011;50277;52.064;4.492;2024-03-06T08:30:00;38.45;;;27.73;;
64029;SDS011;50277;52.064;4.492;2024-03-06T08:32:26;34.55;;;27.73;;
64029;SDS011;50277;52.064;4.492;2024-03-06T08:34:52;34.45;;;27.55;;
64029;SDS011;50277;52.064;4.492;2024-03-06T08:37:17;34.40;;;26.45;;
64029;SDS011;50277;52.064;4.492;2024-03-06T08:39:43;36.60;;;27.13;;
64029;SDS011;50277;52.064;4.492;2024-03-06T08:42:08;29.33;;;23.05;;
64029;SDS011;50277;52.064;4.492;2024-03-06T08:44:34;23.08;;;18.40;;
64029;SDS011;50277;52.064;4.492;2024-03-06T08:46:59;22.92;;;18.88;;
64029;SDS011;50277;52.064;4.492;2024-03-06T08:49:24;19.80;;;15.98;;
64029;SDS011;50277;52.064;4.492;2024-03-06T08:51:50;21.27;;;16.95;;
64029;SDS011;50277;52.064;4.492;2024-03-06T08:54:15;17.20;;;15.25;;
64029;SDS011;50277;52.064;4.492;2024-03-06T08:56:42;16.20;;;14.45;;
64029;SDS011;50277;52.064;4.492;2024-03-06T09:01:34;15.87;;;14.17;;
64029;SDS011;50277;52.064;4.492;2024-03-06T09:03:59;20.33;;;15.48;;
64029;SDS011;50277;52.064;4.492;2024-03-06T09:06:25;18.50;;;14.40;;
64029;SDS011;50277;52.064;4.492;2024-03-06T09:08:50;17.08;;;15.23;;
64029;SDS011;50277;52.064;4.492;2024-03-06T09:11:15;18.67;;;14.55;;
64029;SDS011;50277;52.064;4.492;2024-03-06T09:13:41;19.45;;;15.45;;
64029;SDS011;50277;52.064;4.492;2024-03-06T09:16:08;18.40;;;15.32;;
64029;SDS011;50277;52.064;4.492;2024-03-06T09:18:33;16.30;;;14.63;;
64029;SDS011;50277;52.064;4.492;2024-03-06T09:20:59;16.70;;;14.80;;
64029;SDS011;50277;52.064;4.492;2024-03-06T09:23:24;18.27;;;14.52;;
64029;SDS011;50277;52.064;4.492;2024-03-06T09:25:51;16.40;;;14.70;;
64029;SDS011;50277;52.064;4.492;2024-03-06T09:28:16;18.20;;;16.20;;
64029;SDS011;50277;52.064;4.492;2024-03-06T09:30:42;17.35;;;15.55;;
64029;SDS011;50277;52.064;4.492;2024-03-06T09:33:07;17.05;;;15.25;;
64029;SDS011;50277;52.064;4.492;2024-03-06T09:35:33;18.48;;;14.65;;
64029;SDS011;50277;52.064;4.492;2024-03-06T09:37:58;16.50;;;13.30;;
64029;SDS011;50277;52.064;4.492;2024-03-06T09:40:26;12.80;;;11.48;;
64029;SDS011;50277;52.064;4.492;2024-03-06T09:42:51;13.50;;;11.80;;
64029;SDS011;50277;52.064;4.492;2024-03-06T09:45:17;14.88;;;13.05;;
64029;SDS011;50277;52.064;4.492;2024-03-06T09:47:42;14.68;;;10.48;;
64029;SDS011;50277;52.064;4.492;2024-03-06T09:50:08;15.60;;;13.90;;
64029;SDS011;50277;52.064;4.492;2024-03-06T09:52:34;15.55;;;13.48;;
64029;SDS011;50277;52.064;4.492;2024-03-06T09:55:01;15.23;;;13.63;;
64029;SDS011;50277;52.064;4.492;2024-03-06T09:57:28;13.65;;;12.25;;
64029;SDS011;50277;52.064;4.492;2024-03-06T09:59:54;15.85;;;14.10;;
64029;SDS011;50277;52.064;4.492;2024-03-06T10:02:41;15.98;;;13.60;;
64029;SDS011;50277;52.064;4.492;2024-03-06T10:05:23;15.13;;;13.40;;
64029;SDS011;50277;52.064;4.492;2024-03-06T10:07:52;15.05;;;12.10;;
64029;SDS011;50277;52.064;4.492;2024-03-06T10:10:20;14.88;;;13.25;;
64029;SDS011;50277;52.064;4.492;2024-03-06T10:12:47;16.27;;;14.48;;
64029;SDS011;50277;52.064;4.492;2024-03-06T10:15:13;19.15;;;13.60;;
64029;SDS011;50277;52.064;4.492;2024-03-06T10:17:39;18.15;;;13.63;;
64029;SDS011;50277;52.064;4.492;2024-03-06T10:20:23;15.38;;;12.60;;
64029;SDS011;50277;52.064;4.492;2024-03-06T10:22:52;14.30;;;12.48;;
64029;SDS011;50277;52.064;4.492;2024-03-06T10:25:18;14.70;;;13.27;;
64029;SDS011;50277;52.064;4.492;2024-03-06T10:28:03;15.63;;;13.90;;
64029;SDS011;50277;52.064;4.492;2024-03-06T10:30:36;16.45;;;14.25;;
64029;SDS011;50277;52.064;4.492;2024-03-06T10:33:06;14.07;;;12.57;;
64029;SDS011;50277;52.064;4.492;2024-03-06T10:35:32;13.82;;;12.35;;
64029;SDS011;50277;52.064;4.492;2024-03-06T10:37:59;14.90;;;12.52;;
64029;SDS011;50277;52.064;4.492;2024-03-06T10:42:51;15.23;;;12.73;;
64029;SDS011;50277;52.064;4.492;2024-03-06T10:45:17;13.90;;;12.32;;
64029;SDS011;50277;52.064;4.492;2024-03-06T10:47:45;15.43;;;11.65;;
64029;SDS011;50277;52.064;4.492;2024-03-06T10:50:13;15.85;;;13.38;;
64029;SDS011;50277;52.064;4.492;2024-03-06T10:52:40;16.52;;;13.02;;
64029;SDS011;50277;52.064;4.492;2024-03-06T10:55:06;14.05;;;12.35;;
64029;SDS011;50277;52.064;4.492;2024-03-06T10:57:31;14.60;;;13.07;;
64029;SDS011;50277;52.064;4.492;2024-03-06T10:59:57;13.98;;;11.57;;
64029;SDS011;50277;52.064;4.492;2024-03-06T11:02:24;12.27;;;10.93;;
64029;SDS011;50277;52.064;4.492;2024-03-06T11:04:50;11.25;;;10.05;;
64029;SDS011;50277;52.064;4.492;2024-03-06T11:07:16;8.38;;;7.43;;
64029;SDS011;50277;52.064;4.492;2024-03-06T11:09:42;12.02;;;8.73;;
64029;SDS011;50277;52.064;4.492;2024-03-06T11:12:07;14.98;;;8.07;;
64029;SDS011;50277;52.064;4.492;2024-03-06T11:14:36;12.65;;;9.07;;
64029;SDS011;50277;52.064;4.492;2024-03-06T11:17:08;8.95;;;7.63;;
64029;SDS011;50277;52.064;4.492;2024-03-06T11:28:21;11.57;;;7.57;;
64029;SDS011;50277;52.064;4.492;2024-03-06T11:30:57;12.52;;;8.15;;
64029;SDS011;50277;52.064;4.492;2024-03-06T11:33:26;11.95;;;8.43;;
64029;SDS011;50277;52.064;4.492;2024-03-06T11:36:21;10.35;;;7.57;;
64029;SDS011;50277;52.064;4.492;2024-03-06T11:39:04;8.75;;;7.45;;
64029;SDS011;50277;52.064;4.492;2024-03-06T11:41:32;9.68;;;7.03;;
64029;SDS011;50277;52.064;4.492;2024-03-06T11:44:15;11.45;;;6.88;;
64029;SDS011;50277;52.064;4.492;2024-03-06T11:46:56;10.63;;;7.75;;
64029;SDS011;50277;52.064;4.492;2024-03-06T11:49:23;12.55;;;8.68;;
64029;SDS011;50277;52.064;4.492;2024-03-06T11:51:50;11.43;;;8.93;;
64029;SDS011;50277;52.064;4.492;2024-03-06T11:54:16;11.73;;;8.20;;
64029;SDS011;50277;52.064;4.492;2024-03-06T11:56:50;10.25;;;7.50;;
64029;SDS011;50277;52.064;4.492;2024-03-06T11:59:25;7.78;;;6.68;;
64029;SDS011;50277;52.064;4.492;2024-03-06T12:01:53;8.27;;;7.47;;
64029;SDS011;50277;52.064;4.492;2024-03-06T12:04:19;8.27;;;6.18;;
64029;SDS011;50277;52.064;4.492;2024-03-06T12:06:49;9.85;;;6.65;;
64029;SDS011;50277;52.064;4.492;2024-03-06T12:09:14;11.02;;;8.07;;
64029;SDS011;50277;52.064;4.492;2024-03-06T12:11:40;8.18;;;7.38;;
64029;SDS011;50277;52.064;4.492;2024-03-06T12:14:12;8.35;;;7.20;;
64029;SDS011;50277;52.064;4.492;2024-03-06T12:16:38;8.27;;;6.55;;
64029;SDS011;50277;52.064;4.492;2024-03-06T12:19:04;9.40;;;7.07;;
64029;SDS011;50277;52.064;4.492;2024-03-06T12:21:33;13.38;;;8.45;;
64029;SDS011;50277;52.064;4.492;2024-03-06T12:24:06;8.93;;;7.70;;
64029;SDS011;50277;52.064;4.492;2024-03-06T12:26:33;10.75;;;8.65;;
64029;SDS011;50277;52.064;4.492;2024-03-06T12:29:08;10.98;;;8.43;;
64029;SDS011;50277;52.064;4.492;2024-03-06T12:31:36;13.00;;;7.28;;
64029;SDS011;50277;52.064;4.492;2024-03-06T12:34:02;8.02;;;5.63;;
64029;SDS011;50277;52.064;4.492;2024-03-06T12:36:28;6.85;;;5.97;;
64029;SDS011;50277;52.064;4.492;2024-03-06T12:39:02;9.98;;;6.47;;
64029;SDS011;50277;52.064;4.492;2024-03-06T12:41:28;9.43;;;7.32;;
64029;SDS011;50277;52.064;4.492;2024-03-06T12:43:54;9.98;;;7.65;;
64029;SDS011;50277;52.064;4.492;2024-03-06T12:46:21;12.80;;;6.53;;
64029;SDS011;50277;52.064;4.492;2024-03-06T12:48:47;8.85;;;5.55;;
64029;SDS011;50277;52.064;4.492;2024-03-06T12:51:12;8.50;;;6.20;;
64029;SDS011;50277;52.064;4.492;2024-03-06T12:53:37;7.30;;;5.53;;
64029;SDS011;50277;52.064;4.492;2024-03-06T12:56:03;7.10;;;5.70;;
64029;SDS011;50277;52.064;4.492;2024-03-06T12:58:29;10.65;;;5.82;;
64029;SDS011;50277;52.064;4.492;2024-03-06T13:00:56;7.45;;;5.30;;
64029;SDS011;50277;52.064;4.492;2024-03-06T13:03:22;5.40;;;4.90;;
64029;SDS011;50277;52.064;4.492;2024-03-06T13:05:48;7.95;;;5.43;;
64029;SDS011;50277;52.064;4.492;2024-03-06T13:08:13;6.75;;;5.10;;
64029;SDS011;50277;52.064;4.492;2024-03-06T13:10:39;8.98;;;5.50;;
64029;SDS011;50277;52.064;4.492;2024-03-06T13:13:05;11.70;;;6.60;;
64029;SDS011;50277;52.064;4.492;2024-03-06T13:15:31;8.25;;;5.47;;
64029;SDS011;50277;52.064;4.492;2024-03-06T13:17:59;9.65;;;6.13;;
64029;SDS011;50277;52.064;4.492;2024-03-06T13:20:24;6.93;;;5.43;;
64029;SDS011;50277;52.064;4.492;2024-03-06T13:22:49;9.65;;;6.32;;
64029;SDS011;50277;52.064;4.492;2024-03-06T13:25:15;6.65;;;5.32;;
64029;SDS011;50277;52.064;4.492;2024-03-06T13:27:41;8.10;;;5.53;;
64029;SDS011;50277;52.064;4.492;2024-03-06T13:30:06;6.85;;;5.28;;
64029;SDS011;50277;52.064;4.492;2024-03-06T13:32:33;5.75;;;5.22;;
64029;SDS011;50277;52.064;4.492;2024-03-06T13:34:58;5.00;;;4.40;;
64029;SDS011;50277;52.064;4.492;2024-03-06T13:37:23;7.53;;;3.85;;
64029;SDS011;50277;52.064;4.492;2024-03-06T13:39:49;6.65;;;4.00;;
64029;SDS011;50277;52.064;4.492;2024-03-06T13:42:15;5.95;;;5.35;;
64029;SDS011;50277;52.064;4.492;2024-03-06T13:44:40;4.55;;;4.13;;
64029;SDS011;50277;52.064;4.492;2024-03-06T13:47:05;4.15;;;3.75;;
64029;SDS011;50277;52.064;4.492;2024-03-06T13:49:37;4.88;;;4.03;;
64029;SDS011;50277;52.064;4.492;2024-03-06T13:52:03;5.10;;;3.95;;
64029;SDS011;50277;52.064;4.492;2024-03-06T13:54:30;7.05;;;4.88;;
64029;SDS011;50277;52.064;4.492;2024-03-06T13:56:56;5.18;;;4.10;;
64029;SDS011;50277;52.064;4.492;2024-03-06T13:59:26;5.53;;;4.50;;
64029;SDS011;50277;52.064;4.492;2024-03-06T14:01:58;6.72;;;4.35;;
64029;SDS011;50277;52.064;4.492;2024-03-06T14:04:26;4.57;;;4.03;;
64029;SDS011;50277;52.064;4.492;2024-03-06T14:06:52;4.00;;;3.60;;
64029;SDS011;50277;52.064;4.492;2024-03-06T14:09:17;5.10;;;3.95;;
64029;SDS011;50277;52.064;4.492;2024-03-06T14:11:42;5.03;;;3.55;;
64029;SDS011;50277;52.064;4.492;2024-03-06T14:14:08;5.82;;;3.70;;
64029;SDS011;50277;52.064;4.492;2024-03-06T14:16:34;4.57;;;4.10;;
64029;SDS011;50277;52.064;4.492;2024-03-06T14:19:00;4.88;;;4.00;;
64029;SDS011;50277;52.064;4.492;2024-03-06T14:21:25;4.35;;;3.80;;
64029;SDS011;50277;52.064;4.492;2024-03-06T14:23:50;5.53;;;3.95;;
64029;SDS011;50277;52.064;4.492;2024-03-06T14:26:16;5.60;;;4.45;;
64029;SDS011;50277;52.064;4.492;2024-03-06T14:28:41;4.85;;;4.35;;
64029;SDS011;50277;52.064;4.492;2024-03-06T14:31:07;5.40;;;3.95;;
64029;SDS011;50277;52.064;4.492;2024-03-06T14:33:32;6.97;;;4.60;;
64029;SDS011;50277;52.064;4.492;2024-03-06T14:35:58;4.78;;;3.83;;
64029;SDS011;50277;52.064;4.492;2024-03-06T14:38:24;4.10;;;3.67;;